Time;durP1;ratioP1;P1;durP2;ratioP2;P2;SDS_P1;SDS_P2;PMS_P1;PMS_P2;Temp;Humidity;BMP_temperature;BMP_pressure;BME280_temperature;BME280_humidity;BME280_pressure;Samples;Min_cycle;Max_cycle;Signal;HPM_P1;HPM_P2
2021/12/22 00:02:01;;;;;;;11.37;4.97;;;;;;;-12.60;100.00;100042.91;1666145;86;21442;-79
2021/12/22 00:04:30;;;;;;;12.07;4.43;;;;;;;-12.59;100.00;100047.67;1665110;86;21050;-80
2021/12/22 00:06:56;;;;;;;11.67;5.53;;;;;;;-12.57;100.00;100055.02;1666242;86;21023;-80
2021/12/22 00:09:23;;;;;;;14.70;5.73;;;;;;;-12.56;100.00;100053.69;1666131;86;21026;-80
2021/12/22 00:11:50;;;;;;;13.17;5.87;;;;;;;-12.54;100.00;100064.09;1666165;85;21034;-79
2021/12/22 00:14:17;;;;;;;13.70;5.90;;;;;;;-12.51;100.00;100059.69;1666182;86;21054;-80
2021/12/22 00:16:44;;;;;;;13.43;6.03;;;;;;;-12.50;100.00;100054.91;1665865;86;21038;-79
2021/12/22 00:19:11;;;;;;;16.57;6.20;;;;;;;-12.51;100.00;100059.69;1666127;86;20994;-79
2021/12/22 00:21:38;;;;;;;17.47;6.07;;;;;;;-12.49;100.00;100062.27;1664513;86;21544;-79
2021/12/22 00:24:05;;;;;;;16.77;6.57;;;;;;;-12.49;100.00;100060.97;1666265;86;21026;-78
2021/12/22 00:26:32;;;;;;;18.60;6.10;;;;;;;-12.45;100.00;100057.41;1666986;85;21027;-80
2021/12/22 00:28:58;;;;;;;14.60;6.20;;;;;;;-12.41;100.00;100056.47;1688207;85;21027;-79
2021/12/22 00:31:27;;;;;;;19.10;6.93;;;;;;;-12.39;100.00;100048.62;1687846;85;21014;-79
2021/12/22 00:33:56;;;;;;;16.47;6.77;;;;;;;-12.38;100.00;100045.15;1704416;83;20999;-79
2021/12/22 00:36:29;;;;;;;17.53;7.23;;;;;;;-12.37;100.00;100046.42;1735187;82;21031;-78
2021/12/22 00:38:55;;;;;;;;;;;;;;;-12.34;100.00;100052.02;1737820;82;20987;-79
2021/12/22 00:41:22;;;;;;;15.90;6.30;;;;;;;-12.33;100.00;100055.91;1735589;82;20111;-79
2021/12/22 00:43:50;;;;;;;19.03;6.10;;;;;;;-12.32;100.00;100050.23;1735251;83;20996;-80
2021/12/22 00:46:17;;;;;;;18.23;6.40;;;;;;;-12.30;100.00;100058.91;1735428;82;21015;-79
2021/12/22 00:48:45;;;;;;;15.27;5.80;;;;;;;-12.29;100.00;100058.86;1735224;82;20999;-80
2021/12/22 00:51:11;;;;;;;13.87;6.37;;;;;;;-12.25;100.00;100059.66;1735354;82;20980;-81
2021/12/22 00:53:38;;;;;;;18.37;6.23;;;;;;;-12.28;100.00;100052.77;1738484;82;21042;-79
2021/12/22 00:56:06;;;;;;;15.50;5.70;;;;;;;-12.29;100.00;100051.49;1748387;82;20980;-79
2021/12/22 00:58:34;;;;;;;13.57;5.63;;;;;;;-12.34;100.00;100055.50;1745575;82;20987;-79
2021/12/22 01:01:00;;;;;;;13.83;6.00;;;;;;;-12.39;100.00;100065.56;1745505;81;20979;-79
2021/12/22 01:03:27;;;;;;;15.97;6.43;;;;;;;-12.37;100.00;100062.06;1709681;84;21038;-80
2021/12/22 01:05:53;;;;;;;19.03;7.07;;;;;;;-12.33;100.00;100057.20;1745547;82;20995;-80
2021/12/22 01:08:20;;;;;;;18.87;6.97;;;;;;;-12.27;100.00;100061.02;1746015;81;21456;-80
2021/12/22 01:10:47;;;;;;;16.63;7.10;;;;;;;-12.22;100.00;100052.65;1745204;82;21019;-79
2021/12/22 01:13:14;;;;;;;17.40;6.77;;;;;;;-12.19;100.00;100053.50;1745914;81;21018;-80
2021/12/22 01:15:40;;;;;;;16.23;6.67;;;;;;;-12.15;100.00;100053.86;1745833;81;20976;-79
2021/12/22 01:18:13;;;;;;;16.63;6.63;;;;;;;-12.08;100.00;100051.55;1710118;83;21023;-80
2021/12/22 01:21:07;;;;;;;17.50;6.73;;;;;;;-12.00;100.00;100046.17;1691916;85;21062;-81
2021/12/22 01:23:23;;;;;;;13.97;5.77;;;;;;;-11.92;100.00;100046.45;1695560;85;20994;-79
2021/12/22 01:25:50;;;;;;;13.03;5.83;;;;;;;-11.81;100.00;100056.63;1746217;82;20995;-80
2021/12/22 01:28:17;;;;;;;14.97;6.20;;;;;;;-11.76;100.00;100057.41;1716249;83;21038;-80
2021/12/22 01:30:47;;;;;;;15.33;6.07;;;;;;;-11.68;100.00;100060.73;1751133;82;21006;-81
2021/12/22 01:33:20;;;;;;;13.87;6.27;;;;;;;-11.64;100.00;100056.31;1751145;80;21022;-80
2021/12/22 01:35:47;;;;;;;14.93;5.80;;;;;;;-11.58;100.00;100057.93;1751099;82;21043;-79
2021/12/22 01:38:13;;;;;;;18.97;7.23;;;;;;;-11.56;100.00;100058.75;1751005;82;21007;-81
2021/12/22 01:40:44;;;;;;;17.27;6.70;;;;;;;-11.53;100.00;100053.48;1717780;84;21015;-79
2021/12/22 01:43:11;;;;;;;24.50;9.03;;;;;;;-11.49;100.00;100055.13;1751145;82;21023;-79
2021/12/22 01:46:19;;;;;;;21.80;8.43;;;;;;;-11.44;100.00;100048.06;1751235;82;21007;-79
2021/12/22 01:49:11;;;;;;;15.77;6.53;;;;;;;-11.41;100.00;100057.59;1649270;87;21028;-80
2021/12/22 01:51:45;;;;;;;16.70;6.57;;;;;;;-11.38;100.00;100060.99;1652927;87;21075;-80
2021/12/22 01:54:35;;;;;;;19.17;7.27;;;;;;;-11.39;100.00;100057.95;1652973;85;21517;-78
2021/12/22 01:57:08;;;;;;;20.30;8.03;;;;;;;-11.40;100.00;100067.13;1649781;87;21032;-80
2021/12/22 01:59:31;;;;;;;29.43;13.17;;;;;;;-11.41;100.00;100067.58;1646652;87;21028;-79
2021/12/22 02:02:02;;;;;;;10.30;5.00;;;;;;;-11.39;100.00;100070.16;1649634;87;21027;-78
2021/12/22 02:04:29;;;;;;;17.10;8.20;;;;;;;-11.40;100.00;100061.90;1649808;87;21071;-79
2021/12/22 02:06:56;;;;;;;25.77;11.60;;;;;;;-11.42;100.00;100062.38;1649843;87;21109;-80
2021/12/22 02:11:53;;;;;;;29.37;15.47;;;;;;;-11.41;100.00;100068.03;1651736;87;21054;-79
2021/12/22 02:14:21;;;;;;;23.93;10.07;;;;;;;-11.40;100.00;100069.31;1651745;87;21046;-78
2021/12/22 02:16:47;;;;;;;38.13;16.57;;;;;;;-11.39;100.00;100076.23;1651924;86;21018;-79
2021/12/22 02:19:14;;;;;;;19.00;7.10;;;;;;;-11.37;100.00;100080.97;1629673;87;20992;-80
2021/12/22 02:21:47;;;;;;;15.47;6.03;;;;;;;-11.40;100.00;100087.58;1651783;87;21042;-78
2021/12/22 02:24:10;;;;;;;19.63;8.47;;;;;;;-11.41;100.00;100092.83;1651790;86;21050;-80
2021/12/22 02:26:43;;;;;;;21.07;9.20;;;;;;;-11.44;100.00;100092.88;1651674;87;21512;-80
2021/12/22 02:29:17;;;;;;;19.77;8.47;;;;;;;-11.49;100.00;100085.13;1651581;87;21700;-80
2021/12/22 02:31:43;;;;;;;22.37;10.23;;;;;;;-11.56;100.00;100091.37;1651594;87;21047;-80
2021/12/22 02:34:06;;;;;;;21.87;9.87;;;;;;;-11.61;100.00;100093.20;1648730;87;20990;-79
2021/12/22 02:36:39;;;;;;;24.43;10.10;;;;;;;-11.66;100.00;100100.69;1651627;87;21026;-78
2021/12/22 02:39:01;;;;;;;16.20;6.90;;;;;;;-11.71;100.00;100106.44;1648414;87;21580;-79
2021/12/22 02:41:30;;;;;;;17.50;7.53;;;;;;;-11.78;100.00;100103.98;1651836;87;21099;-80
2021/12/22 02:43:59;;;;;;;23.97;9.90;;;;;;;-11.85;100.00;100105.39;1665324;81;21081;-81
2021/12/22 02:46:30;;;;;;;21.30;9.60;;;;;;;-11.90;100.00;100103.80;1751457;82;21030;-79
2021/12/22 02:48:58;;;;;;;10.33;5.20;;;;;;;-11.92;100.00;100112.09;1751501;82;21516;-80
2021/12/22 02:51:28;;;;;;;15.63;6.53;;;;;;;-11.94;100.00;100109.97;1751482;82;21018;-79
2021/12/22 02:54:08;;;;;;;15.23;7.63;;;;;;;-11.94;100.00;100112.13;1750528;81;21018;-80
2021/12/22 02:56:50;;;;;;;15.80;7.17;;;;;;;-11.97;100.00;100120.44;1730030;82;21567;-80
2021/12/22 03:04:27;;;;;;;16.23;7.30;;;;;;;-12.08;100.00;100131.06;1692554;85;21038;-81
2021/12/22 03:06:58;;;;;;;14.10;5.40;;;;;;;-12.11;100.00;100134.60;1692620;84;21520;-80
2021/12/22 03:09:29;;;;;;;23.40;10.87;;;;;;;-12.13;100.00;100131.59;1692750;84;21007;-80
2021/12/22 03:11:59;;;;;;;16.93;7.50;;;;;;;-12.14;100.00;100134.64;1724557;83;21070;-80
2021/12/22 03:14:28;;;;;;;14.97;5.70;;;;;;;-12.17;100.00;100137.75;1724751;83;20991;-80
2021/12/22 03:16:56;;;;;;;10.60;4.93;;;;;;;-12.18;100.00;100138.63;1724783;83;21058;-80
2021/12/22 03:19:31;;;;;;;16.47;7.40;;;;;;;-12.22;100.00;100138.66;1724775;83;20963;-80
2021/12/22 03:22:03;;;;;;;13.10;6.07;;;;;;;-12.23;100.00;100148.69;1658147;87;21078;-79
2021/12/22 03:24:32;;;;;;;27.05;11.80;;;;;;;-12.24;100.00;100152.17;1658255;87;21022;-80
2021/12/22 03:27:02;;;;;;;28.87;12.83;;;;;;;-12.27;100.00;100156.58;1657844;86;21061;-80
2021/12/22 03:29:28;;;;;;;27.70;13.17;;;;;;;-12.29;100.00;100167.47;1659486;86;21038;-80
2021/12/22 03:31:54;;;;;;;20.27;9.00;;;;;;;-12.32;100.00;100171.00;1659268;86;21073;-80
2021/12/22 03:34:21;;;;;;;11.40;4.73;;;;;;;-12.32;100.00;100178.82;1659061;86;21051;-79
2021/12/22 03:36:48;;;;;;;14.40;6.13;;;;;;;-12.34;100.00;100174.08;1659123;86;21049;-79
2021/12/22 03:39:15;;;;;;;17.97;10.50;;;;;;;-12.35;100.00;100176.25;1659226;86;20981;-79
2021/12/22 03:41:42;;;;;;;12.40;7.27;;;;;;;-12.38;100.00;100174.98;1658903;86;20990;-78
2021/12/22 03:44:09;;;;;;;9.03;5.30;;;;;;;-12.40;100.00;100177.22;1659630;86;21551;-79
2021/12/22 03:46:37;;;;;;;10.93;5.70;;;;;;;-12.42;100.00;100183.30;1659045;86;21507;-79
2021/12/22 03:49:05;;;;;;;9.37;4.50;;;;;;;-12.45;100.00;100179.42;1659444;86;21014;-79
2021/12/22 03:51:31;;;;;;;13.03;4.70;;;;;;;-12.49;100.00;100185.58;1659231;86;21037;-79
2021/12/22 03:53:58;;;;;;;7.50;4.50;;;;;;;-12.50;100.00;100192.99;1659272;86;21511;-79
2021/12/22 03:56:25;;;;;;;6.80;4.33;;;;;;;-12.51;100.00;100201.68;1648547;86;21031;-79
2021/12/22 03:58:53;;;;;;;8.17;5.10;;;;;;;-12.51;100.00;100196.92;1646393;87;21063;-80
2021/12/22 04:01:19;;;;;;;8.33;4.37;;;;;;;-12.51;100.00;100202.98;1646273;87;21031;-80
2021/12/22 04:03:50;;;;;;;9.20;4.43;;;;;;;-12.50;100.00;100209.05;1646324;87;21028;-79
2021/12/22 04:06:15;;;;;;;6.73;3.73;;;;;;;-12.53;100.00;100211.27;1646165;87;21032;-79
2021/12/22 04:08:42;;;;;;;6.67;3.70;;;;;;;-12.55;100.00;100201.31;1647156;86;21051;-78
2021/12/22 04:11:16;;;;;;;10.37;5.63;;;;;;;-12.56;100.00;100207.84;1646185;87;21040;-79
2021/12/22 04:13:43;;;;;;;7.70;4.10;;;;;;;-12.56;100.00;100215.21;1646575;86;21522;-80
2021/12/22 04:16:10;;;;;;;6.87;4.17;;;;;;;-12.56;100.00;100220.42;1646222;87;21118;-79
2021/12/22 04:18:37;;;;;;;9.47;4.03;;;;;;;-12.54;100.00;100220.41;1704940;82;21550;-79
2021/12/22 04:21:04;;;;;;;8.07;4.43;;;;;;;-12.51;100.00;100228.19;1752092;82;21018;-79
2021/12/22 04:23:32;;;;;;;5.60;3.57;;;;;;;-12.50;100.00;100235.98;1753279;82;21018;-80
2021/12/22 04:26:02;;;;;;;10.10;4.53;;;;;;;-12.49;100.00;100241.59;1752903;82;21511;-78
2021/12/22 04:28:28;;;;;;;17.93;7.37;;;;;;;-12.50;100.00;100246.41;1746457;82;21026;-81
2021/12/22 04:30:55;;;;;;;20.73;7.90;;;;;;;-12.65;100.00;100252.66;1745947;81;21500;-79
2021/12/22 04:33:22;;;;;;;17.03;6.63;;;;;;;-12.79;100.00;100255.89;1745065;82;21018;-79
2021/12/22 04:35:50;;;;;;;10.97;4.83;;;;;;;-12.88;100.00;100260.77;1746193;81;20997;-79
2021/12/22 04:38:17;;;;;;;13.80;4.73;;;;;;;-12.90;100.00;100263.84;1745751;81;20992;-79
2021/12/22 04:40:46;;;;;;;8.03;4.03;;;;;;;-12.84;100.00;100265.05;1745424;81;21002;-79
2021/12/22 04:43:14;;;;;;;11.00;4.60;;;;;;;-12.80;100.00;100264.57;1745604;82;21047;-80
2021/12/22 04:45:40;;;;;;;10.80;4.13;;;;;;;-12.74;100.00;100270.17;1745192;82;21017;-77
2021/12/22 04:48:08;;;;;;;11.93;4.80;;;;;;;-12.73;100.00;100267.52;1745338;82;20987;-79
2021/12/22 04:50:35;;;;;;;12.77;4.47;;;;;;;-12.77;100.00;100264.55;1745659;81;20971;-79
2021/12/22 04:53:11;;;;;;;14.90;5.67;;;;;;;-12.78;100.00;100271.95;1746401;81;21003;-79
2021/12/22 04:55:33;;;;;;;16.90;5.97;;;;;;;-12.80;100.00;100268.06;1741567;82;21536;-79
2021/12/22 04:58:00;;;;;;;12.43;5.37;;;;;;;-12.84;100.00;100268.95;1745587;82;21508;-79
2021/12/22 05:00:30;;;;;;;17.90;6.30;;;;;;;-12.93;100.00;100269.08;1746581;81;21011;-80
2021/12/22 05:02:57;;;;;;;19.60;5.73;;;;;;;-13.00;100.00;100269.58;1745659;81;21070;-80
2021/12/22 05:05:24;;;;;;;12.33;4.53;;;;;;;-13.07;100.00;100275.73;1748225;81;20959;-79
2021/12/22 05:07:51;;;;;;;12.07;5.03;;;;;;;-13.08;100.00;100277.94;1745511;81;21022;-79
2021/12/22 05:10:18;;;;;;;8.93;4.30;;;;;;;-13.05;100.00;100277.02;1748817;81;20990;-79
2021/12/22 05:12:46;;;;;;;9.97;4.47;;;;;;;-13.01;100.00;100280.89;1746516;81;20983;-79
2021/12/22 05:15:17;;;;;;;6.83;3.60;;;;;;;-12.95;100.00;100281.70;1745446;81;21007;-80
2021/12/22 05:20:12;;;;;;;11.03;3.83;;;;;;;-12.94;100.00;100288.61;1745990;82;21489;-81
2021/12/22 05:22:39;;;;;;;10.40;4.00;;;;;;;-12.95;100.00;100292.97;1745703;81;21043;-81
2021/12/22 05:25:08;;;;;;;8.07;3.37;;;;;;;-12.92;100.00;100298.15;1745999;82;20984;-81
2021/12/22 05:27:36;;;;;;;9.23;3.83;;;;;;;-12.90;100.00;100300.30;1745660;82;20975;-80
2021/12/22 05:30:05;;;;;;;12.87;4.50;;;;;;;-12.87;100.00;100301.56;1745867;81;21050;-80
2021/12/22 05:32:32;;;;;;;13.03;4.70;;;;;;;-12.94;100.00;100309.02;1746724;81;20987;-81
2021/12/22 05:35:02;;;;;;;12.97;5.10;;;;;;;-12.98;100.00;100312.52;1746003;82;20998;-80
2021/12/22 05:37:31;;;;;;;10.87;4.70;;;;;;;-13.02;100.00;100331.22;1746278;81;20987;-80
2021/12/22 05:39:57;;;;;;;10.40;4.23;;;;;;;-13.06;100.00;100329.53;1746216;81;21492;-81
2021/12/22 05:42:25;;;;;;;9.00;4.37;;;;;;;-13.12;100.00;100337.84;1746255;81;20991;-81
2021/12/22 05:44:52;;;;;;;11.17;4.23;;;;;;;-13.12;100.00;100343.05;1746684;81;21516;-81
2021/12/22 05:47:19;;;;;;;11.27;4.60;;;;;;;-13.16;100.00;100342.66;1747620;81;20999;-81
2021/12/22 05:49:48;;;;;;;11.93;4.73;;;;;;;-13.16;100.00;100341.36;1746550;82;21027;-80
2021/12/22 05:52:14;;;;;;;13.60;5.07;;;;;;;-13.25;100.00;100344.91;1746793;81;21023;-80
2021/12/22 05:54:41;;;;;;;12.57;4.87;;;;;;;-13.33;100.00;100345.02;1746545;81;21537;-80
2021/12/22 05:57:09;;;;;;;15.10;5.60;;;;;;;-13.39;100.00;100347.21;1749697;82;20999;-81
2021/12/22 05:59:35;;;;;;;10.10;4.30;;;;;;;-13.40;100.00;100343.32;1750252;82;20991;-80
2021/12/22 06:02:02;;;;;;;13.30;4.87;;;;;;;-13.38;100.00;100346.80;1750138;82;20998;-79
2021/12/22 06:04:29;;;;;;;16.33;6.13;;;;;;;-13.38;100.00;100347.66;1749976;82;20963;-81
2021/12/22 06:06:57;;;;;;;12.50;5.40;;;;;;;-13.40;100.00;100348.11;1750415;82;20995;-80
2021/12/22 06:09:25;;;;;;;15.13;6.60;;;;;;;-13.37;100.00;100345.91;1750492;82;21014;-82
2021/12/22 06:11:53;;;;;;;12.00;5.33;;;;;;;-13.34;100.00;100347.19;1750220;82;20994;-80
2021/12/22 06:14:19;;;;;;;11.83;5.27;;;;;;;-13.36;100.00;100346.34;1750156;82;21006;-80
2021/12/22 06:16:46;;;;;;;18.47;6.43;;;;;;;-13.37;100.00;100353.70;1749967;82;21042;-80
2021/12/22 06:19:14;;;;;;;19.27;7.57;;;;;;;-13.47;100.00;100357.26;1749619;81;21719;-81
2021/12/22 06:21:42;;;;;;;22.63;8.13;;;;;;;-13.52;100.00;100349.95;1749836;82;20991;-81
2021/12/22 06:24:08;;;;;;;37.27;12.93;;;;;;;-13.60;100.00;100364.30;1749876;82;21026;-81
2021/12/22 06:26:35;;;;;;;59.83;16.47;;;;;;;-13.59;100.00;100362.14;1749205;82;21007;-81
2021/12/22 06:29:02;;;;;;;63.60;16.83;;;;;;;-13.58;100.00;100364.73;1738451;83;20995;-81
2021/12/22 06:31:29;;;;;;;62.63;18.93;;;;;;;-13.60;100.00;100363.00;1738634;83;21015;-81
2021/12/22 06:33:56;;;;;;;44.10;13.73;;;;;;;-13.59;100.00;100368.64;1738547;82;21030;-82
2021/12/22 06:36:23;;;;;;;27.83;10.83;;;;;;;-13.54;100.00;100364.69;1743665;82;21022;-81
2021/12/22 06:38:50;;;;;;;21.47;8.47;;;;;;;-13.45;100.00;100368.55;1741400;81;21458;-80
2021/12/22 06:41:17;;;;;;;18.53;7.80;;;;;;;-13.38;100.00;100363.71;1746106;82;21128;-80
2021/12/22 06:43:43;;;;;;;19.20;7.27;;;;;;;-13.37;100.00;100368.02;1741090;82;20972;-81
2021/12/22 06:46:10;;;;;;;16.03;7.13;;;;;;;-13.15;100.00;100363.89;1739583;82;20980;-81
2021/12/22 06:48:37;;;;;;;20.10;7.80;;;;;;;-13.15;100.00;100363.89;1743443;82;21490;-81
2021/12/22 06:51:03;;;;;;;22.00;9.13;;;;;;;-13.04;100.00;100370.73;1742608;82;21465;-83
2021/12/22 06:53:34;;;;;;;20.27;8.50;;;;;;;-12.92;100.00;100367.56;1741257;82;21087;-83
2021/12/22 06:55:59;;;;;;;25.13;10.83;;;;;;;-12.84;100.00;100360.09;1742106;82;21003;-84
2021/12/22 06:58:28;;;;;;;27.43;13.20;;;;;;;-12.77;100.00;100370.02;1747297;82;21544;-84
2021/12/22 07:00:56;;;;;;;32.37;14.60;;;;;;;-12.70;100.00;100366.91;1748592;82;20980;-81
2021/12/22 07:03:23;;;;;;;25.90;12.10;;;;;;;-12.62;100.00;100376.37;1744818;81;21015;-81
2021/12/22 07:05:51;;;;;;;24.43;12.03;;;;;;;-12.57;100.00;100368.48;1747551;81;21470;-82
2021/12/22 07:08:18;;;;;;;27.00;12.87;;;;;;;-12.50;100.00;100379.70;1746630;82;20987;-82
2021/12/22 07:10:45;;;;;;;23.13;9.87;;;;;;;-12.49;100.00;100380.99;1742280;82;21003;-81
2021/12/22 07:13:14;;;;;;;26.67;13.20;;;;;;;-12.43;100.00;100382.23;1723868;82;20991;-82
2021/12/22 07:15:43;;;;;;;23.87;10.67;;;;;;;-12.39;100.00;100386.09;1748674;82;21018;-81
2021/12/22 07:18:11;;;;;;;19.40;9.13;;;;;;;-12.33;100.00;100384.73;1744964;82;20967;-81
2021/12/22 07:20:39;;;;;;;27.40;13.50;;;;;;;-12.27;100.00;100383.34;1743320;82;20975;-82
2021/12/22 07:23:07;;;;;;;21.87;11.20;;;;;;;-12.24;100.00;100379.39;1744162;82;20951;-82
2021/12/22 07:25:34;;;;;;;31.07;17.80;;;;;;;-12.15;100.00;100380.57;1748509;82;20983;-82
2021/12/22 07:28:03;;;;;;;36.87;21.20;;;;;;;-12.06;100.00;100378.29;1746555;82;20963;-81
2021/12/22 07:30:31;;;;;;;23.10;11.33;;;;;;;-12.00;100.00;100375.61;1747846;81;20987;-78
2021/12/22 07:32:58;;;;;;;26.57;13.17;;;;;;;-11.91;100.00;100380.70;1748562;80;21472;-81
2021/12/22 07:35:54;;;;;;;27.37;14.27;;;;;;;-11.85;100.00;100382.31;1763475;80;20979;-82
2021/12/22 07:38:43;;;;;;;27.67;14.20;;;;;;;-11.82;100.00;100378.81;1753839;80;20912;-83
2021/12/22 07:41:12;;;;;;;21.73;11.43;;;;;;;-11.78;100.00;100385.70;1749959;80;20948;-77
2021/12/22 07:43:39;;;;;;;25.43;11.93;;;;;;;-11.80;100.00;100380.50;1761960;80;20958;-82
2021/12/22 07:46:08;;;;;;;34.47;15.03;;;;;;;-11.73;100.00;100381.28;1758260;80;20980;-80
2021/12/22 07:48:37;;;;;;;21.23;9.43;;;;;;;-11.67;100.00;100387.28;1754324;81;20978;-78
2021/12/22 07:51:17;;;;;;;23.50;11.43;;;;;;;-11.62;100.00;100390.26;1752380;80;21039;-75
2021/12/22 07:53:43;;;;;;;20.33;9.03;;;;;;;-11.55;100.00;100388.82;1690129;83;21561;-75
2021/12/22 07:56:10;;;;;;;22.00;11.27;;;;;;;-11.44;100.00;100400.85;1683305;84;21014;-80
2021/12/22 07:58:38;;;;;;;18.77;9.13;;;;;;;-11.35;100.00;100392.87;1680637;84;21093;-78
2021/12/22 08:01:04;;;;;;;24.30;11.20;;;;;;;-11.24;100.00;100393.58;1684320;84;21078;-80
2021/12/22 08:03:32;;;;;;;25.00;11.40;;;;;;;-11.15;100.00;100393.42;1682531;84;21003;-74
2021/12/22 08:05:59;;;;;;;18.40;7.67;;;;;;;-11.07;100.00;100387.60;1685591;84;21089;-73
2021/12/22 08:08:25;;;;;;;18.83;8.77;;;;;;;-10.92;100.00;100384.33;1685820;84;21019;-73
2021/12/22 08:10:52;;;;;;;15.37;7.27;;;;;;;-10.83;100.00;100380.70;1660846;85;21082;-74
2021/12/22 08:13:19;;;;;;;17.40;8.60;;;;;;;-10.72;100.00;100383.50;1686894;85;21023;-75
2021/12/22 08:15:46;;;;;;;19.83;9.20;;;;;;;-10.58;100.00;100384.55;1680765;85;20995;-73
2021/12/22 08:18:13;;;;;;;21.90;10.53;;;;;;;-10.50;100.00;100377.86;1687216;85;21043;-75
2021/12/22 08:20:40;;;;;;;23.70;11.13;;;;;;;-10.50;100.00;100380.47;1687603;85;21075;-73
2021/12/22 08:23:07;;;;;;;20.23;10.90;;;;;;;-10.45;100.00;100386.48;1686953;85;21011;-77
2021/12/22 08:25:34;;;;;;;21.80;10.90;;;;;;;-10.39;100.00;100387.67;1686914;85;21039;-73
2021/12/22 08:28:02;;;;;;;17.67;8.23;;;;;;;-10.32;100.00;100387.97;1687360;84;21484;-74
2021/12/22 08:30:29;;;;;;;21.40;11.73;;;;;;;-10.17;100.00;100388.52;1687583;84;21120;-74
2021/12/22 08:33:01;;;;;;;24.30;13.30;;;;;;;-10.04;100.00;100387.80;1687751;84;20971;-74
2021/12/22 08:35:30;;;;;;;24.97;12.23;;;;;;;-10.01;100.00;100389.05;1686788;84;21556;-73
2021/12/22 08:40:41;;;;;;;28.97;11.17;;;;;;;-9.81;100.00;100381.64;1678858;84;20996;-71
2021/12/22 08:43:08;;;;;;;24.80;13.17;;;;;;;-9.63;100.00;100387.33;1685348;83;20986;-75
2021/12/22 08:45:35;;;;;;;39.77;14.50;;;;;;;-9.50;100.00;100389.23;1686946;84;21035;-74
2021/12/22 08:48:02;;;;;;;38.30;18.13;;;;;;;-9.37;100.00;100381.02;1686737;84;21039;-73
2021/12/22 08:50:30;;;;;;;43.37;21.87;;;;;;;-9.17;100.00;100385.80;1690137;84;20945;-77
2021/12/22 08:52:57;;;;;;;41.63;19.23;;;;;;;-9.03;100.00;100387.20;1686469;84;21012;-76
2021/12/22 08:55:24;;;;;;;57.00;23.03;;;;;;;-8.95;100.00;100392.27;1715832;80;21030;-73
2021/12/22 08:57:57;;;;;;;38.77;16.23;;;;;;;-8.95;100.00;100394.42;1751226;81;21030;-74
2021/12/22 09:00:23;;;;;;;46.90;16.37;;;;;;;-8.96;100.00;100384.83;1745261;82;21009;-73
2021/12/22 09:02:51;;;;;;;27.27;10.40;;;;;;;-8.93;100.00;100382.14;1751548;82;20979;-74
2021/12/22 09:05:18;;;;;;;17.33;7.20;;;;;;;-8.89;100.00;100387.70;1747950;81;21027;-72
2021/12/22 09:07:44;;;;;;;35.47;15.90;;;;;;;-8.83;100.00;100386.70;1749198;80;20970;-73
2021/12/22 09:10:12;;;;;;;36.27;17.83;;;;;;;-8.85;100.00;100375.38;1751047;81;21002;-77
2021/12/22 09:12:38;;;;;;;33.47;13.37;;;;;;;-8.74;100.00;100377.74;1752358;81;20947;-74
2021/12/22 09:15:07;;;;;;;23.63;10.67;;;;;;;-8.63;100.00;100376.53;1755964;81;20968;-73
2021/12/22 09:17:35;;;;;;;23.17;9.30;;;;;;;-8.53;100.00;100373.22;1753761;80;21018;-73
2021/12/22 09:20:02;;;;;;;72.73;22.33;;;;;;;-8.44;100.00;100383.45;1750409;81;21002;-73
2021/12/22 09:22:28;;;;;;;43.03;15.60;;;;;;;-8.48;100.00;100380.52;1745177;81;20983;-73
2021/12/22 09:24:55;;;;;;;66.03;22.43;;;;;;;-8.41;100.00;100385.97;1754402;81;20971;-75
2021/12/22 09:27:22;;;;;;;22.90;9.97;;;;;;;-8.45;100.00;100377.78;1756903;81;20958;-75
2021/12/22 09:29:49;;;;;;;55.20;23.03;;;;;;;-8.57;100.00;100381.20;1754968;81;21033;-75
2021/12/22 09:32:18;;;;;;;25.43;10.80;;;;;;;-8.51;100.00;100381.90;1751389;81;20922;-76
2021/12/22 09:34:45;;;;;;;18.33;8.70;;;;;;;-8.45;100.00;100379.09;1753228;81;20931;-74
2021/12/22 09:37:12;;;;;;;20.33;8.83;;;;;;;-8.35;100.00;100376.20;1761578;80;20968;-72
2021/12/22 09:39:39;;;;;;;44.27;20.07;;;;;;;-8.36;100.00;100379.26;1756762;80;21002;-76
2021/12/22 09:42:06;;;;;;;25.63;11.53;;;;;;;-8.34;100.00;100378.76;1762338;80;20927;-74
2021/12/22 09:44:38;;;;;;;20.13;9.17;;;;;;;-8.29;100.00;100389.13;1767696;81;21007;-73
2021/12/22 09:47:05;;;;;;;21.10;10.50;;;;;;;-8.35;100.00;100388.02;1769924;80;21015;-74
2021/12/22 09:52:26;;;;;;;17.47;9.53;;;;;;;-8.35;100.00;100390.63;1761410;80;20932;-76
2021/12/22 09:54:54;;;;;;;16.80;7.83;;;;;;;-8.27;100.00;100384.70;1754425;81;21520;-76
2021/12/22 09:57:22;;;;;;;25.23;13.23;;;;;;;-8.16;100.00;100389.20;1754904;80;21129;-73
2021/12/22 09:59:53;;;;;;;54.13;21.90;;;;;;;-8.01;100.00;100384.80;1755506;80;21477;-75
2021/12/22 10:02:21;;;;;;;32.67;15.03;;;;;;;-7.90;100.00;100383.17;1748521;80;21015;-76
2021/12/22 10:04:49;;;;;;;32.87;14.73;;;;;;;-7.93;100.00;100383.28;1755331;80;20955;-78
2021/12/22 10:07:20;;;;;;;20.17;8.80;;;;;;;-7.85;100.00;100377.33;1756539;80;21226;-76
2021/12/22 10:09:45;;;;;;;32.53;12.70;;;;;;;-7.78;100.00;100380.64;1739279;81;20963;-75
2021/12/22 10:12:19;;;;;;;28.17;11.23;;;;;;;-7.77;100.00;100378.44;1745441;80;20991;-71
2021/12/22 10:14:53;;;;;;;20.93;8.53;;;;;;;-7.90;100.00;100376.61;1670321;85;21505;-75
2021/12/22 10:17:37;;;;;;;14.83;7.40;;;;;;;-8.04;100.00;100378.36;1682729;85;21007;-75
2021/12/22 10:20:13;;;;;;;17.43;8.67;;;;;;;-8.15;100.00;100375.63;1677146;85;21526;-74
2021/12/22 10:22:43;;;;;;;22.90;11.57;;;;;;;-8.11;100.00;100378.12;1648092;86;21050;-73
2021/12/22 10:25:17;;;;;;;22.93;11.40;;;;;;;-7.88;100.00;100370.88;1646387;85;21054;-79
2021/12/22 10:27:47;;;;;;;22.07;11.27;;;;;;;-7.78;100.00;100374.08;1665455;86;21012;-76
2021/12/22 10:30:24;;;;;;;26.40;13.83;;;;;;;-7.64;100.00;100370.56;1665819;86;21036;-72
2021/12/22 10:33:18;;;;;;;28.63;13.97;;;;;;;-7.65;100.00;100370.17;1667517;86;21047;-74
2021/12/22 10:35:48;;;;;;;33.13;15.10;;;;;;;-7.61;100.00;100372.25;1663257;86;21028;-74
2021/12/22 10:38:18;;;;;;;35.90;17.23;;;;;;;-7.59;100.00;100367.80;1667505;86;21062;-74
2021/12/22 10:40:48;;;;;;;34.73;18.13;;;;;;;-7.69;100.00;100369.00;1669293;86;21004;-74
2021/12/22 10:43:28;;;;;;;20.70;11.40;;;;;;;-7.73;100.00;100372.63;1665788;86;21012;-74
2021/12/22 10:46:00;;;;;;;16.37;8.13;;;;;;;-7.79;100.00;100375.43;1594218;90;21024;-74
2021/12/22 10:53:48;;;;;;;28.60;10.90;;;;;;;-7.72;100.00;100381.78;1503232;93;21625;-74
2021/12/22 10:56:34;;;;;;;18.43;9.07;;;;;;;-7.66;100.00;100378.09;1497011;95;21545;-74
2021/12/22 10:59:18;;;;;;;14.93;6.83;;;;;;;-7.62;100.00;100374.92;1485503;97;21075;-77
2021/12/22 11:01:59;;;;;;;17.20;7.70;;;;;;;-7.67;100.00;100382.47;1485928;97;21071;-75
2021/12/22 11:04:30;;;;;;;13.73;6.73;;;;;;;-7.60;100.00;100380.52;1466563;97;21051;-73
2021/12/22 11:07:07;;;;;;;16.40;7.40;;;;;;;-7.65;100.00;100386.36;1475624;97;21552;-74
2021/12/22 11:09:36;;;;;;;11.80;6.47;;;;;;;-7.71;100.00;100386.56;1472955;97;21070;-75
2021/12/22 11:12:04;;;;;;;10.70;5.87;;;;;;;-7.71;100.00;100386.11;1461848;97;21050;-76
2021/12/22 11:14:38;;;;;;;14.00;6.47;;;;;;;-7.74;100.00;100394.53;1466730;97;21125;-76
2021/12/22 11:17:18;;;;;;;15.33;7.07;;;;;;;-7.78;100.00;100388.52;1492032;95;21086;-74
2021/12/22 11:19:54;;;;;;;19.37;9.30;;;;;;;-7.72;100.00;100392.71;1496719;95;21066;-74
2021/12/22 11:22:35;;;;;;;18.27;9.87;;;;;;;-7.70;100.00;100382.59;1474188;97;21604;-74
2021/12/22 11:24:52;;;;;;;20.50;10.03;;;;;;;-7.66;100.00;100390.77;1482627;96;21523;-75
2021/12/22 11:27:26;;;;;;;27.83;11.70;;;;;;;-7.52;100.00;100391.66;1468909;96;21134;-74
2021/12/22 11:29:56;;;;;;;49.23;23.63;;;;;;;-7.46;100.00;100389.28;1449266;98;21552;-73
2021/12/22 11:32:26;;;;;;;18.00;8.17;;;;;;;-7.48;100.00;100395.90;1448622;98;21560;-74